createdAt,value
2018-06-24T00:01:46.174Z,12.70
2018-06-24T00:04:15.783Z,12.70
2018-06-24T00:06:45.149Z,12.70
2018-06-24T00:09:14.480Z,12.70
2018-06-24T00:11:43.862Z,12.70
2018-06-24T00:14:14.154Z,12.70
2018-06-24T00:16:43.438Z,12.70
2018-06-24T00:19:12.798Z,12.70
2018-06-24T00:21:42.103Z,12.70
2018-06-24T00:24:11.514Z,12.70
2018-06-24T00:26:41.533Z,12.70
2018-06-24T00:29:10.779Z,12.70
2018-06-24T00:31:40.055Z,12.70
2018-06-24T00:34:09.644Z,12.70
2018-06-24T00:36:38.876Z,12.70
2018-06-24T00:39:09.296Z,12.70
2018-06-24T00:41:39.114Z,12.70
2018-06-24T00:44:08.402Z,12.70
2018-06-24T00:46:37.694Z,12.70
2018-06-24T00:49:06.990Z,12.60
2018-06-24T00:51:36.311Z,12.70
2018-06-24T00:54:05.679Z,12.70
2018-06-24T00:56:35.626Z,12.60
2018-06-24T00:59:04.924Z,12.60
2018-06-24T01:01:34.218Z,12.60
2018-06-24T01:04:03.621Z,12.60
2018-06-24T01:06:32.923Z,12.60
2018-06-24T01:09:02.341Z,12.60
2018-06-24T01:11:31.731Z,12.60
2018-06-24T01:14:01.034Z,12.60
2018-06-24T01:16:30.371Z,12.60
2018-06-24T01:18:59.734Z,12.60
2018-06-24T01:21:29.053Z,12.70
2018-06-24T01:23:58.314Z,12.70
2018-06-24T01:26:27.646Z,12.70
2018-06-24T01:28:56.875Z,12.60
2018-06-24T01:31:26.183Z,12.70
2018-06-24T01:33:55.514Z,12.60
2018-06-24T01:36:24.814Z,12.60
2018-06-24T01:38:54.084Z,12.60
2018-06-24T01:41:23.403Z,12.60
2018-06-24T01:43:52.702Z,12.60
2018-06-24T01:46:22.061Z,12.60
2018-06-24T01:48:51.313Z,12.60
2018-06-24T01:51:20.718Z,12.60
2018-06-24T01:53:49.985Z,12.60
2018-06-24T01:56:19.419Z,12.60
2018-06-24T01:58:48.728Z,12.60
2018-06-24T02:01:17.976Z,12.60
2018-06-24T02:03:47.352Z,12.60
2018-06-24T02:06:16.630Z,12.60
2018-06-24T02:08:45.961Z,12.60
2018-06-24T02:11:15.329Z,12.60
2018-06-24T02:13:44.741Z,12.60
2018-06-24T02:16:14.131Z,12.60
2018-06-24T02:18:43.440Z,12.60
2018-06-24T02:21:13.398Z,12.60
2018-06-24T02:23:42.761Z,12.60
2018-06-24T02:26:12.022Z,12.60
2018-06-24T02:28:41.390Z,12.60
2018-06-24T02:31:10.869Z,12.60
2018-06-24T02:33:40.168Z,12.60
2018-06-24T02:36:09.418Z,12.60
2018-06-24T02:38:38.918Z,12.60
2018-06-24T02:41:08.254Z,12.60
2018-06-24T02:43:37.542Z,12.50
2018-06-24T02:46:07.156Z,12.60
2018-06-24T02:51:05.417Z,12.60
2018-06-24T02:53:35.082Z,12.50
2018-06-24T02:56:04.762Z,12.50
2018-06-24T02:58:34.182Z,12.50
2018-06-24T03:01:03.603Z,12.50
2018-06-24T03:03:32.995Z,12.50
2018-06-24T03:06:02.359Z,12.50
2018-06-24T03:08:31.700Z,12.40
2018-06-24T03:13:29.958Z,12.40
2018-06-24T03:15:59.239Z,12.40
2018-06-24T03:18:28.492Z,12.40
2018-06-24T03:20:57.840Z,12.40
2018-06-24T03:23:27.171Z,12.40
2018-06-24T03:26:03.071Z,12.40
2018-06-24T03:28:32.537Z,12.40
2018-06-24T03:31:01.809Z,12.40
2018-06-24T03:33:31.135Z,12.40
2018-06-24T03:36:01.194Z,12.40
2018-06-24T03:38:30.599Z,12.40
2018-06-24T03:40:59.906Z,12.40
2018-06-24T03:43:29.179Z,12.40
2018-06-24T03:45:58.552Z,12.40
2018-06-24T03:48:27.952Z,12.40
2018-06-24T03:50:57.697Z,12.40
2018-06-24T03:53:27.089Z,12.40
2018-06-24T03:55:56.380Z,12.40
2018-06-24T03:58:25.677Z,12.50
2018-06-24T04:00:55.038Z,12.50
2018-06-24T04:03:24.473Z,12.50
2018-06-24T04:08:23.660Z,12.50
2018-06-24T04:10:53.031Z,12.50
2018-06-24T04:13:22.354Z,12.50
2018-06-24T04:15:52.517Z,12.40
2018-06-24T04:18:21.790Z,12.50
2018-06-24T04:20:51.109Z,12.50
2018-06-24T04:23:20.411Z,12.50
2018-06-24T04:25:49.706Z,12.50
2018-06-24T04:28:18.975Z,12.60
2018-06-24T04:30:48.317Z,12.60
2018-06-24T04:33:17.609Z,12.60
2018-06-24T04:35:46.930Z,12.60
2018-06-24T04:38:16.217Z,12.60
2018-06-24T04:40:45.526Z,12.60
2018-06-24T04:43:14.781Z,12.50
2018-06-24T04:45:44.162Z,12.50
2018-06-24T04:48:13.478Z,12.50
2018-06-24T04:50:42.976Z,12.50
2018-06-24T04:53:12.284Z,12.50
2018-06-24T04:58:10.481Z,12.40
2018-06-24T05:00:39.727Z,12.40
2018-06-24T05:03:09.018Z,12.40
2018-06-24T05:05:38.326Z,12.40
2018-06-24T05:08:07.675Z,12.30
2018-06-24T05:10:36.968Z,12.30
2018-06-24T05:13:06.690Z,12.30
2018-06-24T05:15:36.895Z,12.20
2018-06-24T05:18:06.654Z,12.20
2018-06-24T05:20:36.767Z,12.20
2018-06-24T05:23:06.238Z,12.20
2018-06-24T05:25:35.545Z,12.20
2018-06-24T05:28:04.877Z,12.10
2018-06-24T05:30:34.170Z,12.10
2018-06-24T05:33:04.451Z,12.10
2018-06-24T05:35:33.810Z,12.10
2018-06-24T05:38:03.152Z,12.10
2018-06-24T05:40:32.453Z,12.10
2018-06-24T05:43:01.730Z,12.10
2018-06-24T05:45:31.012Z,12.10
2018-06-24T05:48:00.607Z,12.00
2018-06-24T05:50:30.030Z,12.00
2018-06-24T05:52:59.371Z,12.10
2018-06-24T05:55:29.227Z,12.10
2018-06-24T05:57:58.668Z,12.00
2018-06-24T06:00:28.042Z,12.00
2018-06-24T06:02:57.452Z,12.10
2018-06-24T06:05:26.775Z,12.20
2018-06-24T06:07:56.104Z,12.20
2018-06-24T06:12:57.211Z,12.20
2018-06-24T06:15:26.575Z,12.20
2018-06-24T06:20:24.743Z,12.30
2018-06-24T06:22:54.121Z,12.20
2018-06-24T06:25:23.477Z,12.20
2018-06-24T06:27:53.635Z,12.30
2018-06-24T06:30:23.089Z,12.30
2018-06-24T06:32:52.460Z,12.40
2018-06-24T06:35:21.804Z,12.50
2018-06-24T06:37:51.128Z,12.70
2018-06-24T06:40:20.454Z,12.80
2018-06-24T06:42:49.810Z,13.00
2018-06-24T06:45:19.295Z,13.20
2018-06-24T06:47:48.532Z,13.30
2018-06-24T06:50:17.856Z,13.40
2018-06-24T06:55:16.051Z,13.50
2018-06-24T07:00:14.443Z,13.50
2018-06-24T07:02:43.769Z,13.50
2018-06-24T07:05:13.106Z,13.40
2018-06-24T07:07:42.386Z,13.50
2018-06-24T07:10:12.774Z,13.30
2018-06-24T07:15:11.223Z,13.40
2018-06-24T07:17:40.655Z,13.30
2018-06-24T07:20:10.209Z,13.30
2018-06-24T07:22:39.604Z,13.20
2018-06-24T07:25:09.014Z,13.10
2018-06-24T07:27:38.348Z,13.10
2018-06-24T07:30:07.818Z,13.00
2018-06-24T07:32:37.146Z,12.90
2018-06-24T07:35:06.595Z,12.90
2018-06-24T07:37:35.898Z,12.80
2018-06-24T07:40:05.350Z,12.90
2018-06-24T07:42:34.664Z,12.90
2018-06-24T07:45:04.435Z,12.90
2018-06-24T07:47:33.815Z,12.90
2018-06-24T07:50:03.164Z,12.90
2018-06-24T07:52:32.425Z,13.00
2018-06-24T07:55:01.983Z,13.00
2018-06-24T07:57:31.522Z,13.10
2018-06-24T08:00:00.854Z,13.00
2018-06-24T08:02:30.198Z,13.10
2018-06-24T08:04:59.508Z,13.20
2018-06-24T08:07:28.960Z,13.40
2018-06-24T08:09:58.401Z,13.50
2018-06-24T08:12:27.795Z,13.60
2018-06-24T08:14:57.097Z,13.70
2018-06-24T08:17:26.439Z,13.90
2018-06-24T08:22:24.618Z,14.20
2018-06-24T08:24:53.930Z,14.30
2018-06-24T08:29:52.467Z,14.30
2018-06-24T08:32:21.776Z,14.30
2018-06-24T08:34:51.189Z,14.50
2018-06-24T08:37:21.230Z,14.60
2018-06-24T08:39:50.610Z,14.60
2018-06-24T08:42:19.992Z,14.70
2018-06-24T08:44:49.687Z,14.70
2018-06-24T08:47:19.120Z,14.70
2018-06-24T08:49:48.418Z,14.70
2018-06-24T08:52:17.783Z,14.80
2018-06-24T08:54:47.149Z,15.00
2018-06-24T08:57:16.483Z,14.90
2018-06-24T08:59:45.820Z,14.90
2018-06-24T09:02:15.389Z,15.10
2018-06-24T09:04:44.751Z,15.10
2018-06-24T09:07:14.132Z,15.00
2018-06-24T09:09:43.428Z,14.70
2018-06-24T09:12:12.910Z,14.50
2018-06-24T09:14:42.354Z,14.40
2018-06-24T09:17:11.735Z,14.30
2018-06-24T09:19:41.655Z,14.20
2018-06-24T09:22:11.057Z,14.10
2018-06-24T09:24:40.354Z,14.10
2018-06-24T09:27:09.682Z,14.10
2018-06-24T09:29:39.563Z,14.10
2018-06-24T09:32:08.909Z,14.20
2018-06-24T09:34:38.373Z,14.30
2018-06-24T09:37:07.748Z,14.40
2018-06-24T09:39:37.174Z,14.30
2018-06-24T09:42:06.542Z,14.20
2018-06-24T09:44:35.913Z,14.10
2018-06-24T09:47:05.603Z,14.00
2018-06-24T09:49:36.235Z,13.90
2018-06-24T09:52:06.060Z,13.70
2018-06-24T09:54:35.470Z,13.60
2018-06-24T09:57:05.087Z,13.60
2018-06-24T09:59:34.848Z,13.50
2018-06-24T10:02:04.425Z,13.50
2018-06-24T10:04:33.938Z,13.50
2018-06-24T10:07:03.501Z,13.50
2018-06-24T10:09:32.990Z,13.60
2018-06-24T10:12:02.805Z,13.60
2018-06-24T10:14:32.707Z,13.60
2018-06-24T10:17:02.018Z,13.70
2018-06-24T10:19:31.526Z,13.80
2018-06-24T10:22:00.858Z,13.80
2018-06-24T10:24:30.381Z,13.90
2018-06-24T10:26:59.729Z,13.90
2018-06-24T10:29:29.263Z,13.80
2018-06-24T10:31:58.878Z,13.90
2018-06-24T10:34:28.302Z,13.90
2018-06-24T10:36:57.768Z,13.80
2018-06-24T10:41:56.059Z,13.60
2018-06-24T10:44:25.399Z,13.70
2018-06-24T10:46:54.721Z,13.80
2018-06-24T10:49:24.353Z,13.80
2018-06-24T10:51:53.761Z,13.90
2018-06-24T10:54:23.829Z,14.00
2018-06-24T10:56:53.189Z,14.20
2018-06-24T10:59:22.525Z,14.30
2018-06-24T11:01:52.017Z,14.40
2018-06-24T11:04:21.526Z,14.30
2018-06-24T11:06:51.113Z,14.40
2018-06-24T11:09:21.414Z,14.40
2018-06-24T11:11:50.846Z,14.30
2018-06-24T11:14:20.224Z,14.20
2018-06-24T11:16:49.507Z,14.20
2018-06-24T11:21:47.831Z,14.20
2018-06-24T11:26:46.294Z,14.30
2018-06-24T11:31:44.894Z,14.50
2018-06-24T11:34:14.635Z,14.60
2018-06-24T11:36:44.056Z,14.70
2018-06-24T11:39:15.149Z,14.70
2018-06-24T11:41:45.171Z,14.60
2018-06-24T11:44:14.913Z,14.60
2018-06-24T11:46:44.819Z,14.60
2018-06-24T11:49:15.060Z,14.50
2018-06-24T11:51:46.369Z,14.70
2018-06-24T11:54:15.986Z,14.70
2018-06-24T11:56:46.330Z,14.70
2018-06-24T12:01:45.331Z,14.80
2018-06-24T12:04:14.917Z,14.80
2018-06-24T12:09:14.046Z,14.70
2018-06-24T12:11:43.618Z,14.70
2018-06-24T12:14:13.058Z,14.50
2018-06-24T12:16:42.469Z,14.50
2018-06-24T12:19:11.974Z,14.40
2018-06-24T12:21:41.494Z,14.30
2018-06-24T12:24:11.011Z,14.20
2018-06-24T12:26:40.356Z,14.20
2018-06-24T12:29:09.629Z,14.20
2018-06-24T12:31:39.000Z,14.20
2018-06-24T12:34:08.301Z,14.30
2018-06-24T12:36:42.690Z,14.30
2018-06-24T12:41:44.884Z,14.50
2018-06-24T12:44:14.215Z,14.50
2018-06-24T12:46:43.732Z,14.70
2018-06-24T12:49:13.869Z,14.90
2018-06-24T12:51:43.186Z,15.20
2018-06-24T12:54:13.066Z,15.50
2018-06-24T12:56:42.729Z,15.60
2018-06-24T12:59:12.410Z,15.70
2018-06-24T13:01:41.778Z,15.90
2018-06-24T13:04:11.461Z,16.10
2018-06-24T13:06:41.129Z,16.10
2018-06-24T13:09:10.705Z,16.10
2018-06-24T13:11:40.449Z,16.20
2018-06-24T13:14:09.965Z,16.10
2018-06-24T13:16:40.181Z,16.20
2018-06-24T13:19:10.557Z,16.10
2018-06-24T13:21:40.914Z,15.80
2018-06-24T13:24:11.268Z,15.60
2018-06-24T13:26:41.384Z,15.60
2018-06-24T13:29:11.035Z,15.50
2018-06-24T13:34:11.614Z,15.10
2018-06-24T13:36:42.481Z,15.00
2018-06-24T13:41:45.430Z,14.90
2018-06-24T13:44:15.811Z,14.70
2018-06-24T13:46:46.071Z,14.60
2018-06-24T13:49:16.718Z,14.60
2018-06-24T13:51:47.176Z,14.60
2018-06-24T13:54:17.245Z,14.50
2018-06-24T13:56:47.841Z,14.50
2018-06-24T13:59:17.413Z,14.50
2018-06-24T14:01:47.096Z,14.60
2018-06-24T14:04:17.241Z,14.60
2018-06-24T14:06:47.025Z,14.70
2018-06-24T14:09:16.812Z,14.80
2018-06-24T14:11:46.832Z,14.80
2018-06-24T14:14:17.312Z,15.00
2018-06-24T14:16:46.791Z,15.00
2018-06-24T14:19:17.381Z,15.10
2018-06-24T14:21:47.119Z,15.00
2018-06-24T14:24:17.903Z,15.10
2018-06-24T14:26:48.500Z,15.10
2018-06-24T14:29:19.412Z,15.10
2018-06-24T14:31:49.075Z,15.10
2018-06-24T14:34:19.183Z,15.20
2018-06-24T14:36:49.493Z,15.20
2018-06-24T14:39:19.577Z,15.30
2018-06-24T14:41:49.952Z,15.50
2018-06-24T14:44:20.193Z,15.60
2018-06-24T14:46:52.621Z,15.60
2018-06-24T14:49:22.934Z,15.60
2018-06-24T14:51:53.153Z,15.70
2018-06-24T14:54:22.842Z,15.60
2018-06-24T14:56:53.970Z,15.70
2018-06-24T14:59:23.720Z,15.80
2018-06-24T15:01:53.979Z,15.90
2018-06-24T15:04:24.138Z,16.00
2018-06-24T15:06:54.958Z,16.10
2018-06-24T15:09:25.816Z,16.10
2018-06-24T15:11:55.337Z,16.10
2018-06-24T15:14:24.708Z,16.10
2018-06-24T15:16:54.170Z,16.00
2018-06-24T15:19:23.476Z,15.90
2018-06-24T15:21:53.294Z,15.80
2018-06-24T15:26:51.497Z,15.70
2018-06-24T15:31:50.104Z,15.60
2018-06-24T15:36:48.975Z,15.10
2018-06-24T15:39:18.516Z,15.00
2018-06-24T15:41:48.379Z,14.90
2018-06-24T15:44:17.933Z,14.90
2018-06-24T15:46:47.308Z,14.80
2018-06-24T15:49:16.717Z,14.90
2018-06-24T15:51:46.176Z,14.90
2018-06-24T15:54:16.651Z,15.00
2018-06-24T15:56:47.565Z,15.00
2018-06-24T15:59:16.952Z,15.00
2018-06-24T16:04:15.340Z,15.00
2018-06-24T16:06:44.911Z,15.10
2018-06-24T16:09:14.322Z,15.10
2018-06-24T16:11:43.679Z,15.10
2018-06-24T16:14:13.093Z,15.20
2018-06-24T16:16:42.497Z,15.20
2018-06-24T16:19:11.873Z,15.20
2018-06-24T16:21:41.393Z,15.20
2018-06-24T16:26:40.542Z,15.00
2018-06-24T16:29:10.659Z,15.00
2018-06-24T16:31:42.002Z,14.90
2018-06-24T16:36:42.889Z,14.90
2018-06-24T16:39:14.757Z,14.90
2018-06-24T16:41:45.460Z,15.00
2018-06-24T16:44:15.122Z,15.00
2018-06-24T16:46:45.351Z,15.00
2018-06-24T16:49:15.153Z,15.10
2018-06-24T16:51:45.429Z,15.00
2018-06-24T16:54:15.785Z,15.00
2018-06-24T16:56:45.967Z,15.00
2018-06-24T16:59:15.513Z,15.00
2018-06-24T17:01:45.697Z,15.00
2018-06-24T17:04:15.818Z,15.00
2018-06-24T17:06:45.837Z,15.00
2018-06-24T17:09:15.900Z,15.00
2018-06-24T17:11:45.763Z,15.00
2018-06-24T17:14:15.902Z,15.00
2018-06-24T17:16:45.500Z,14.90
2018-06-24T17:19:15.572Z,14.90
2018-06-24T17:21:45.637Z,14.90
2018-06-24T17:24:15.943Z,14.80
2018-06-24T17:29:15.634Z,14.80
2018-06-24T17:34:15.743Z,14.80
2018-06-24T17:36:47.325Z,14.80
2018-06-24T17:39:18.795Z,14.90
2018-06-24T17:41:48.398Z,14.90
2018-06-24T17:44:18.461Z,14.80
2018-06-24T17:46:48.395Z,14.80
2018-06-24T17:49:18.578Z,14.80
2018-06-24T17:51:48.495Z,14.80
2018-06-24T17:54:18.539Z,14.80
2018-06-24T17:56:48.407Z,14.80
2018-06-24T17:59:18.841Z,14.80
2018-06-24T18:01:49.464Z,14.80
2018-06-24T18:06:49.457Z,14.80
2018-06-24T18:09:19.283Z,14.80
2018-06-24T18:11:48.756Z,14.70
2018-06-24T18:14:19.031Z,14.70
2018-06-24T18:16:49.623Z,14.80
2018-06-24T18:19:19.403Z,14.70
2018-06-24T18:21:48.815Z,14.70
2018-06-24T18:24:18.321Z,14.70
2018-06-24T18:26:48.396Z,14.70
2018-06-24T18:29:18.335Z,14.60
2018-06-24T18:31:48.222Z,14.60
2018-06-24T18:34:17.898Z,14.60
2018-06-24T18:36:47.400Z,14.50
2018-06-24T18:41:46.148Z,14.40
2018-06-24T18:44:17.766Z,14.30
2018-06-24T18:49:16.907Z,14.30
2018-06-24T18:51:47.359Z,14.20
2018-06-24T18:54:18.124Z,14.20
2018-06-24T18:59:18.688Z,14.10
2018-06-24T19:01:49.702Z,14.10
2018-06-24T19:04:20.950Z,14.00
2018-06-24T19:06:51.768Z,14.00
2018-06-24T19:09:22.325Z,14.00
2018-06-24T19:11:53.362Z,14.00
2018-06-24T19:16:53.994Z,13.90
2018-06-24T19:19:24.643Z,13.90
2018-06-24T19:21:55.455Z,13.90
2018-06-24T19:24:26.028Z,13.80
2018-06-24T19:26:56.739Z,13.80
2018-06-24T19:29:27.648Z,13.80
2018-06-24T19:31:58.092Z,13.70
2018-06-24T19:34:29.212Z,13.60
2018-06-24T19:36:59.294Z,13.60
2018-06-24T19:39:29.851Z,13.60
2018-06-24T19:42:00.749Z,13.50
2018-06-24T19:44:32.065Z,13.50
2018-06-24T19:47:03.268Z,13.40
2018-06-24T19:49:33.461Z,13.50
2018-06-24T19:52:04.998Z,13.40
2018-06-24T19:54:36.083Z,13.30
2018-06-24T19:57:07.991Z,13.30
2018-06-24T19:59:38.339Z,13.20
2018-06-24T20:02:09.712Z,13.20
2018-06-24T20:04:40.223Z,13.10
2018-06-24T20:07:10.848Z,13.00
2018-06-24T20:09:41.042Z,13.00
2018-06-24T20:12:11.472Z,13.00
2018-06-24T20:14:42.497Z,12.90
2018-06-24T20:17:13.522Z,12.90
2018-06-24T20:19:44.052Z,12.90
2018-06-24T20:22:14.339Z,12.90
2018-06-24T20:24:44.584Z,12.90
2018-06-24T20:27:16.052Z,12.80
2018-06-24T20:29:46.821Z,12.80
2018-06-24T20:32:18.025Z,12.80
2018-06-24T20:34:47.429Z,12.70
2018-06-24T20:37:16.809Z,12.80
2018-06-24T20:39:46.386Z,12.70
2018-06-24T20:42:15.755Z,12.60
2018-06-24T20:44:45.133Z,12.60
2018-06-24T20:47:14.533Z,12.60
2018-06-24T20:52:12.812Z,12.50
2018-06-24T20:54:42.173Z,12.50
2018-06-24T20:57:11.563Z,12.40
2018-06-24T20:59:40.903Z,12.40
2018-06-24T21:02:10.559Z,12.40
2018-06-24T21:04:39.948Z,12.30
2018-06-24T21:07:09.256Z,12.30
2018-06-24T21:09:38.588Z,12.30
2018-06-24T21:12:07.969Z,12.30
2018-06-24T21:14:37.366Z,12.30
2018-06-24T21:17:06.659Z,12.20
2018-06-24T21:19:36.605Z,12.20
2018-06-24T21:22:06.005Z,12.10
2018-06-24T21:24:37.482Z,12.00
2018-06-24T21:27:08.145Z,12.00
2018-06-24T21:29:37.781Z,12.00
2018-06-24T21:32:07.778Z,12.00
2018-06-24T21:34:37.310Z,11.90
2018-06-24T21:37:06.631Z,11.90
2018-06-24T21:39:35.947Z,11.80
2018-06-24T21:42:06.466Z,11.80
2018-06-24T21:44:35.754Z,11.80
2018-06-24T21:47:05.126Z,11.70
2018-06-24T21:49:34.445Z,11.70
2018-06-24T21:52:03.761Z,11.60
2018-06-24T21:54:33.083Z,11.60
2018-06-24T21:57:02.654Z,11.50
2018-06-24T21:59:31.933Z,11.50
2018-06-24T22:02:01.319Z,11.50
2018-06-24T22:04:30.713Z,11.40
2018-06-24T22:07:00.046Z,11.40
2018-06-24T22:09:29.305Z,11.40
2018-06-24T22:11:58.737Z,11.40
2018-06-24T22:14:28.015Z,11.40
2018-06-24T22:16:57.885Z,11.30
2018-06-24T22:19:28.353Z,11.30
2018-06-24T22:21:57.868Z,11.20
2018-06-24T22:24:27.479Z,11.20
2018-06-24T22:26:56.867Z,11.10
2018-06-24T22:29:26.180Z,11.10
2018-06-24T22:31:55.469Z,11.00
2018-06-24T22:34:24.810Z,11.00
2018-06-24T22:36:54.104Z,10.90
2018-06-24T22:39:23.384Z,10.90
2018-06-24T22:41:52.680Z,10.90
2018-06-24T22:44:22.070Z,10.90
2018-06-24T22:46:51.328Z,11.00
2018-06-24T22:49:20.622Z,11.00
2018-06-24T22:51:49.901Z,11.00
2018-06-24T22:54:19.301Z,10.90
2018-06-24T22:56:48.607Z,10.90
2018-06-24T22:59:29.237Z,10.90
2018-06-24T23:01:58.527Z,10.90
2018-06-24T23:04:27.842Z,10.80
2018-06-24T23:06:57.188Z,10.80
2018-06-24T23:09:26.428Z,10.70
2018-06-24T23:11:55.832Z,10.70
2018-06-24T23:14:25.108Z,10.60
2018-06-24T23:16:54.381Z,10.60
2018-06-24T23:19:23.624Z,10.50
2018-06-24T23:21:53.099Z,10.50
2018-06-24T23:24:22.468Z,10.50
2018-06-24T23:26:51.735Z,10.40
2018-06-24T23:29:21.112Z,10.40
2018-06-24T23:31:50.545Z,10.40
2018-06-24T23:34:19.944Z,10.40
2018-06-24T23:36:49.242Z,10.40
2018-06-24T23:39:18.587Z,10.40
2018-06-24T23:41:47.843Z,10.40
2018-06-24T23:44:17.193Z,10.30
2018-06-24T23:46:46.437Z,10.30
2018-06-24T23:49:15.696Z,10.20
2018-06-24T23:51:45.006Z,10.30
2018-06-24T23:54:14.454Z,10.20
2018-06-24T23:56:43.725Z,10.10
2018-06-24T23:59:13.011Z,10.30
